Time;durP1;ratioP1;P1;durP2;ratioP2;P2;SDS_P1;SDS_P2;PMS_P1;PMS_P2;Temp;Humidity;BMP_temperature;BMP_pressure;BME280_temperature;BME280_humidity;BME280_pressure;Samples;Min_cycle;Max_cycle;Signal;HPM_P1;HPM_P2
2021/12/21 00:00:33;;;;;;;;;30.75;28.50;;;;;8.62;51.10;101881.28;2052313;28;48094;-52
2021/12/21 00:01:34;;;;;;;;;30.50;28.50;;;;;8.62;51.22;101877.75;2054722;28;48292;-54
2021/12/21 00:02:34;;;;;;;;;31.50;30.50;;;;;8.61;51.29;101876.00;2055025;28;46174;-52
2021/12/21 00:03:35;;;;;;;;;26.50;25.50;;;;;8.61;51.28;101878.63;2052756;28;47087;-53
2021/12/21 00:04:35;;;;;;;;;31.50;24.75;;;;;8.60;51.36;101882.16;2051065;28;48682;-53
2021/12/21 00:05:37;;;;;;;;;27.50;25.50;;;;;8.59;51.24;101880.41;2052782;28;47361;-50
2021/12/21 00:06:38;;;;;;;;;22.00;22.00;;;;;8.59;51.28;101875.09;2054075;28;47368;-53
2021/12/21 00:07:38;;;;;;;;;26.60;23.60;;;;;8.58;51.24;101882.16;2054508;28;46947;-53
2021/12/21 00:08:39;;;;;;;;;31.75;25.00;;;;;8.58;51.31;101875.97;2054054;28;48154;-52
2021/12/21 00:09:39;;;;;;;;;25.00;24.75;;;;;8.55;51.69;101869.81;2054266;28;47182;-54
2021/12/21 00:10:44;;;;;;;;;29.75;29.25;;;;;8.56;51.32;101878.63;2052649;28;46922;-54
2021/12/21 00:11:44;;;;;;;;;28.60;28.00;;;;;8.53;51.26;101876.84;2054582;28;47953;-52
2021/12/21 00:13:02;;;;;;;;;32.75;27.75;;;;;8.53;51.32;101873.31;2054616;28;47539;-55
2021/12/21 00:14:24;;;;;;;;;32.20;31.00;;;;;8.52;51.29;101874.22;2053437;28;47179;-53
2021/12/21 00:15:39;;;;;;;;;36.00;28.20;;;;;8.49;51.38;101872.41;2054143;28;46927;-52
2021/12/21 00:17:04;;;;;;;;;27.00;27.00;;;;;8.49;51.25;101863.59;2054403;28;48162;-52
2021/12/21 00:18:18;;;;;;;;;32.20;27.20;;;;;8.48;51.56;101867.09;2053871;28;48021;-54
2021/12/21 00:21:43;;;;;;;;;31.50;30.75;;;;;8.45;51.37;101860.03;2052399;28;46122;-51
2021/12/21 00:23:58;;;;;;;;;32.40;27.00;;;;;8.42;51.31;101849.47;2053960;28;48321;-54
2021/12/21 00:24:59;;;;;;;;;22.60;21.00;;;;;8.41;51.56;101855.63;2046340;28;48096;-54
2021/12/21 00:26:12;;;;;;;;;26.75;22.50;;;;;8.40;51.46;101861.78;2054361;28;48225;-52
2021/12/21 00:27:14;;;;;;;;;31.00;30.40;;;;;8.39;51.52;101862.69;2054437;28;47236;-53
2021/12/21 00:28:14;;;;;;;;;23.20;22.40;;;;;8.39;51.38;101857.38;2053501;28;47523;-54
2021/12/21 00:29:15;;;;;;;;;36.00;28.50;;;;;8.38;51.51;101860.88;2050519;28;48315;-53
2021/12/21 00:30:16;;;;;;;;;24.50;21.25;;;;;8.39;51.65;101864.44;2048537;28;47268;-54
2021/12/21 00:31:17;;;;;;;;;28.80;23.80;;;;;8.37;51.49;101856.47;2053996;28;47221;-54
2021/12/21 00:32:17;;;;;;;;;24.60;21.60;;;;;8.36;51.52;101856.47;2053937;28;47069;-54
2021/12/21 00:33:18;;;;;;;;;22.25;21.00;;;;;8.36;51.46;101851.16;2049585;28;48064;-52
2021/12/21 00:34:19;;;;;;;;;27.50;25.25;;;;;8.35;51.50;101852.06;2051117;28;48077;-52
2021/12/21 00:35:19;;;;;;;;;28.50;26.25;;;;;8.34;51.48;101851.16;2049156;28;46359;-54
2021/12/21 00:36:24;;;;;;;;;27.00;24.25;;;;;8.33;51.55;101851.13;2054580;27;47294;-54
2021/12/21 00:37:27;;;;;;;;;25.60;24.20;;;;;8.32;51.43;101855.53;2052752;28;47754;-54
2021/12/21 00:38:28;;;;;;;;;28.60;26.20;;;;;8.30;51.68;101852.00;2048224;28;47331;-53
2021/12/21 00:39:28;;;;;;;;;21.75;18.75;;;;;8.30;51.80;101854.66;2054306;28;47388;-54
2021/12/21 00:40:29;;;;;;;;;20.00;20.00;;;;;8.29;51.72;101857.28;2051989;28;47515;-54
2021/12/21 00:41:31;;;;;;;;;26.50;26.50;;;;;8.28;51.65;101853.75;2054335;27;47148;-53
2021/12/21 00:42:31;;;;;;;;;30.80;27.60;;;;;8.27;51.81;101858.16;2054493;28;46884;-54
2021/12/21 00:43:32;;;;;;;;;30.50;26.75;;;;;8.27;51.83;101859.94;2052830;28;47145;-54
2021/12/21 00:44:33;;;;;;;;;29.50;26.75;;;;;8.25;51.45;101851.94;2049620;28;46830;-53
2021/12/21 00:45:33;;;;;;;;;27.00;23.50;;;;;8.24;51.86;101860.75;2049677;28;46348;-53
2021/12/21 00:46:34;;;;;;;;;23.50;23.50;;;;;8.24;51.66;101851.94;2052661;28;45356;-56
2021/12/21 00:47:39;;;;;;;;;29.50;26.25;;;;;8.23;51.81;101859.00;2052038;28;47988;-54
2021/12/21 00:48:48;;;;;;;;;25.20;24.00;;;;;8.23;51.81;101851.06;2053889;27;47278;-54
2021/12/21 00:49:58;;;;;;;;;28.00;23.80;;;;;8.23;51.91;101853.72;2053952;28;47629;-55
2021/12/21 00:51:00;;;;;;;;;30.00;25.40;;;;;8.22;51.81;101851.94;2054216;28;47581;-51
2021/12/21 00:52:01;;;;;;;;;25.60;25.00;;;;;8.22;51.78;101851.06;2051429;28;48179;-53
2021/12/21 00:53:01;;;;;;;;;31.25;26.75;;;;;8.21;51.93;101851.94;2048331;28;47868;-52
2021/12/21 00:54:02;;;;;;;;;28.25;25.50;;;;;8.21;51.78;101862.50;2043894;28;47067;-52
2021/12/21 00:55:03;;;;;;;;;24.50;23.75;;;;;8.20;51.97;101856.34;2044586;28;45658;-54
2021/12/21 00:56:03;;;;;;;;;26.25;21.00;;;;;8.20;51.89;101863.38;2044927;28;48486;-54
2021/12/21 00:57:04;;;;;;;;;21.75;18.75;;;;;8.19;51.99;101851.06;2051091;28;47267;-54
2021/12/21 00:58:05;;;;;;;;;27.80;25.00;;;;;8.17;51.92;101861.63;2053804;28;48486;-52
2021/12/21 00:59:06;;;;;;;;;26.00;26.00;;;;;8.16;51.83;101861.63;2052302;28;47286;-50
2021/12/21 01:00:08;;;;;;;;;27.00;23.50;;;;;8.16;51.78;101858.97;2053278;28;47209;-52
2021/12/21 01:01:08;;;;;;;;;26.40;24.20;;;;;8.15;52.07;101854.56;2054351;28;47813;-53
2021/12/21 01:02:09;;;;;;;;;27.50;25.00;;;;;8.13;52.03;101851.91;2054078;28;46257;-54
2021/12/21 01:03:11;;;;;;;;;28.00;24.20;;;;;8.13;52.24;101843.06;2052950;28;48065;-53
2021/12/21 01:04:23;;;;;;;;;23.20;21.40;;;;;8.13;51.78;101843.97;2052093;28;48356;-53
2021/12/21 01:05:35;;;;;;;;;31.20;25.40;;;;;8.12;51.87;101842.19;2053644;28;47787;-54
2021/12/21 01:06:42;;;;;;;;;27.20;24.40;;;;;8.12;52.06;101838.66;2054407;28;47753;-52
2021/12/21 01:07:47;;;;;;;;;22.00;20.80;;;;;8.11;52.17;101850.97;2053661;28;48502;-52
2021/12/21 01:09:06;;;;;;;;;23.60;21.80;;;;;8.10;51.95;101836.00;2053688;28;48255;-54
2021/12/21 01:11:34;;;;;;;;;26.60;23.20;;;;;8.06;52.13;101839.50;2050647;28;47448;-54
2021/12/21 01:17:26;;;;;;;;;20.75;20.00;;;;;8.01;52.24;101845.66;2054380;28;47321;-54
2021/12/21 01:18:36;;;;;;;;;24.00;21.00;;;;;8.00;52.23;101834.16;2053516;28;47425;-52
2021/12/21 01:19:42;;;;;;;;;28.40;25.00;;;;;8.00;52.37;101838.56;2053857;28;46338;-51
2021/12/21 01:20:51;;;;;;;;;20.00;19.40;;;;;8.00;52.22;101841.22;2049613;28;47735;-53
2021/12/21 01:23:18;;;;;;;;;26.25;25.00;;;;;8.00;52.18;101834.16;2054119;28;46761;-53
2021/12/21 01:29:06;;;;;;;;;26.60;23.80;;;;;7.95;52.57;101836.78;2053344;28;47593;-53
2021/12/21 01:30:35;;;;;;;;;24.60;24.00;;;;;7.95;52.41;101833.25;2052876;28;47956;-53
2021/12/21 01:32:59;;;;;;;;;26.40;22.60;;;;;7.92;52.87;101838.53;2054453;28;48314;-52
2021/12/21 01:34:29;;;;;;;;;23.40;21.80;;;;;7.91;52.56;101828.84;2050589;28;46999;-53
2021/12/21 01:35:35;;;;;;;;;26.60;22.60;;;;;7.90;52.34;101837.66;2045787;28;48304;-53
2021/12/21 01:37:26;;;;;;;;;24.40;24.00;;;;;7.89;52.33;101833.22;2053436;28;47614;-53
2021/12/21 01:38:17;;;;;;;;;26.60;21.60;;;;;7.87;52.82;101829.66;2065569;27;48640;-53
2021/12/21 01:40:40;;;;;;;;;24.40;23.80;;;;;7.87;52.58;101835.84;2051249;28;47228;-50
2021/12/21 01:42:01;;;;;;;;;24.80;24.80;;;;;7.87;52.50;101837.59;2046035;28;48418;-54
2021/12/21 01:43:15;;;;;;;;;24.20;22.80;;;;;7.86;52.53;101839.34;2046230;28;45366;-54
2021/12/21 01:49:49;;;;;;;;;24.20;23.20;;;;;7.81;52.46;101840.22;2051965;28;47582;-53
2021/12/21 01:50:50;;;;;;;;;25.60;25.60;;;;;7.80;52.36;101839.31;2047554;28;48661;-56
2021/12/21 01:51:50;;;;;;;;;15.00;14.50;;;;;7.80;52.79;101839.31;2047544;28;47853;-53
2021/12/21 01:52:51;;;;;;;;;18.75;17.50;;;;;7.79;52.68;101834.03;2054043;28;48308;-53
2021/12/21 01:53:52;;;;;;;;;21.50;21.50;;;;;7.78;52.76;101835.78;2047575;28;47998;-52
2021/12/21 01:54:54;;;;;;;;;24.40;21.00;;;;;7.79;52.71;101837.56;2053264;28;47298;-54
2021/12/21 01:55:54;;;;;;;;;26.00;20.80;;;;;7.77;52.73;101831.38;2052683;28;47414;-51
2021/12/21 01:56:55;;;;;;;;;24.75;24.25;;;;;7.77;52.54;101834.03;2054058;28;48413;-52
2021/12/21 01:57:55;;;;;;;;;20.25;17.75;;;;;7.78;52.79;101834.91;2053639;28;47622;-55
2021/12/21 01:58:57;;;;;;;;;27.75;21.25;;;;;7.77;52.65;101838.44;2051455;28;47149;-54
2021/12/21 01:59:58;;;;;;;;;22.00;20.20;;;;;7.76;52.57;101831.38;2053910;28;47589;-51
2021/12/21 02:00:58;;;;;;;;;32.00;27.75;;;;;7.75;52.79;101832.22;2053400;28;48207;-54
2021/12/21 02:01:59;;;;;;;;;24.25;23.00;;;;;7.74;52.68;101838.38;2053421;28;47342;-53
2021/12/21 02:03:02;;;;;;;;;22.75;22.75;;;;;7.73;52.74;101834.84;2047166;28;47088;-51
2021/12/21 02:04:02;;;;;;;;;24.60;23.20;;;;;7.72;52.90;101834.84;2049966;28;47134;-54
2021/12/21 02:05:03;;;;;;;;;30.75;24.00;;;;;7.72;52.90;101837.50;2042557;28;48485;-52
2021/12/21 02:06:04;;;;;;;;;27.80;23.80;;;;;7.71;52.82;101835.72;2051754;28;45872;-54
2021/12/21 02:07:06;;;;;;;;;27.25;26.50;;;;;7.71;52.84;101838.38;2054685;28;46324;-54
2021/12/21 02:08:06;;;;;;;;;26.80;23.40;;;;;7.70;52.68;101836.59;2054592;28;48552;-49
2021/12/21 02:09:07;;;;;;;;;24.00;23.00;;;;;7.69;52.91;101830.44;2054902;28;47638;-51
2021/12/21 02:10:08;;;;;;;;;31.50;26.25;;;;;7.69;52.97;101833.06;2054241;28;48018;-51
2021/12/21 02:11:08;;;;;;;;;18.40;18.00;;;;;7.69;52.84;101838.34;2050109;28;46549;-50
2021/12/21 02:12:18;;;;;;;;;22.75;21.00;;;;;7.69;53.00;101838.34;2055215;28;47370;-52
2021/12/21 02:13:19;;;;;;;;;23.00;21.40;;;;;7.68;52.85;101826.03;2054758;28;47363;-51
2021/12/21 02:14:19;;;;;;;;;23.75;21.50;;;;;7.68;53.01;101833.94;2054877;28;48013;-52
2021/12/21 02:15:24;;;;;;;;;25.25;23.75;;;;;7.67;52.93;101826.91;2052744;28;46319;-51
2021/12/21 02:16:31;;;;;;;;;25.40;22.60;;;;;7.65;52.97;101828.66;2051599;28;48438;-50
2021/12/21 02:20:11;;;;;;;;;23.80;23.40;;;;;7.62;52.97;101826.88;2075346;28;47377;-55
2021/12/21 02:22:16;;;;;;;;;25.00;24.20;;;;;7.62;52.98;101824.22;2055211;28;47554;-53
2021/12/21 02:22:47;;;;;;;;;20.00;18.20;;;;;7.60;53.18;101820.66;2045976;28;47681;-53
2021/12/21 02:23:50;;;;;;;;;23.40;22.20;;;;;7.59;53.06;101824.19;2054155;28;46329;-51
2021/12/21 02:25:17;;;;;;;;;23.60;23.20;;;;;7.59;53.04;101821.53;2048155;28;46301;-54
2021/12/21 02:27:41;;;;;;;;;25.80;21.80;;;;;7.56;52.87;101818.88;2054947;28;48174;-55
2021/12/21 02:29:42;;;;;;;;;26.00;23.75;;;;;7.55;53.21;101819.75;2054219;28;48644;-54
2021/12/21 02:30:49;;;;;;;;;25.00;21.25;;;;;7.54;53.20;101817.97;2054483;28;47106;-55
2021/12/21 02:31:51;;;;;;;;;22.60;21.80;;;;;7.54;53.07;101820.63;2054564;28;45296;-53
2021/12/21 02:32:52;;;;;;;;;27.40;25.60;;;;;7.55;53.18;101818.88;2055203;28;47186;-54
2021/12/21 02:33:54;;;;;;;;;24.80;24.80;;;;;7.55;53.28;101816.22;2054450;28;47484;-53
2021/12/21 02:34:55;;;;;;;;;24.40;24.20;;;;;7.55;53.41;101819.75;2047663;28;47596;-52
2021/12/21 02:35:57;;;;;;;;;30.50;25.00;;;;;7.55;53.47;101817.09;2054090;28;47222;-53
2021/12/21 02:36:57;;;;;;;;;28.00;25.80;;;;;7.56;53.22;101810.94;2051663;28;47337;-53
2021/12/21 02:37:58;;;;;;;;;27.75;22.50;;;;;7.58;53.22;101813.59;2055331;28;47372;-53
2021/12/21 02:38:59;;;;;;;;;20.75;19.00;;;;;7.58;53.40;101806.56;2054985;28;48148;-52
2021/12/21 02:39:59;;;;;;;;;26.75;26.00;;;;;7.58;53.22;101808.31;2054928;28;47366;-51
2021/12/21 02:40:59;;;;;;;;;23.00;23.00;;;;;7.58;53.35;101808.31;2052999;28;48289;-52
2021/12/21 02:42:00;;;;;;;;;24.50;21.25;;;;;7.58;53.28;101806.56;2054695;28;47066;-51
2021/12/21 02:43:01;;;;;;;;;25.00;23.25;;;;;7.58;53.06;101801.28;2054713;28;48056;-51
2021/12/21 02:44:02;;;;;;;;;23.80;19.80;;;;;7.58;53.32;101808.31;2054070;28;46977;-53
2021/12/21 02:45:04;;;;;;;;;23.60;23.20;;;;;7.59;53.42;101808.31;2054466;28;47309;-51
2021/12/21 02:46:05;;;;;;;;;27.00;22.40;;;;;7.59;53.27;101800.41;2051824;28;47773;-52
2021/12/21 02:47:06;;;;;;;;;19.40;17.60;;;;;7.59;53.52;101800.41;2055125;28;46827;-54
2021/12/21 02:48:07;;;;;;;;;27.50;24.00;;;;;7.60;53.42;101809.22;2054622;28;46943;-54
2021/12/21 02:49:09;;;;;;;;;28.60;26.00;;;;;7.60;53.41;101802.16;2053574;28;47345;-53
2021/12/21 02:50:10;;;;;;;;;23.20;22.40;;;;;7.61;53.33;101797.78;2090327;27;47689;-52
2021/12/21 02:51:11;;;;;;;;;26.00;24.00;;;;;7.62;53.33;101797.81;2047189;28;46844;-52
2021/12/21 02:52:11;;;;;;;;;28.75;27.00;;;;;7.62;53.26;101799.53;2051001;28;48127;-54
2021/12/21 02:53:12;;;;;;;;;25.25;21.75;;;;;7.62;53.35;101802.19;2053755;28;48205;-52
2021/12/21 02:54:13;;;;;;;;;33.75;27.50;;;;;7.62;53.25;101799.53;2053285;27;48161;-54
2021/12/21 02:55:14;;;;;;;;;26.00;23.40;;;;;7.61;53.31;101797.78;2052956;28;48237;-54
2021/12/21 02:56:15;;;;;;;;;28.75;26.75;;;;;7.60;53.52;101796.88;2054319;28;48343;-52
2021/12/21 02:57:15;;;;;;;;;28.50;25.00;;;;;7.60;53.27;101796.00;2054817;28;46783;-52
2021/12/21 02:58:16;;;;;;;;;30.00;26.75;;;;;7.59;53.27;101795.13;2053527;28;47073;-52
2021/12/21 02:59:16;;;;;;;;;23.50;22.75;;;;;7.59;53.15;101789.84;2052423;28;47917;-52
2021/12/21 03:00:17;;;;;;;;;23.75;23.75;;;;;7.59;53.24;101792.47;2053390;28;48059;-54
2021/12/21 03:01:17;;;;;;;;;24.00;24.00;;;;;7.59;53.14;101791.59;2054851;28;48002;-50
2021/12/21 03:02:18;;;;;;;;;23.50;21.75;;;;;7.58;53.34;101789.81;2054545;28;47568;-50
2021/12/21 03:03:19;;;;;;;;;22.25;21.25;;;;;7.58;53.22;101789.81;2054107;28;47159;-52
2021/12/21 03:04:20;;;;;;;;;25.60;24.00;;;;;7.57;53.42;101785.41;2054478;28;48291;-51
2021/12/21 03:05:21;;;;;;;;;26.75;25.50;;;;;7.56;53.15;101787.19;2053537;28;48179;-52
2021/12/21 03:08:56;;;;;;;;;27.60;22.00;;;;;7.56;53.24;101778.38;2053712;28;47394;-54
2021/12/21 03:10:00;;;;;;;;;26.00;24.80;;;;;7.56;53.42;101778.38;2054557;28;48408;-51
2021/12/21 03:12:30;;;;;;;;;27.80;27.20;;;;;7.56;53.29;101773.97;2047590;28;47339;-52
2021/12/21 03:14:51;;;;;;;;;24.20;22.20;;;;;7.57;53.45;101782.78;2055095;28;47301;-52
2021/12/21 03:15:52;;;;;;;;;19.80;18.40;;;;;7.58;53.07;101784.53;2048505;28;45412;-50
2021/12/21 03:16:53;;;;;;;;;23.25;23.25;;;;;7.58;53.28;101780.16;2054331;28;47963;-50
2021/12/21 03:17:55;;;;;;;;;24.40;22.80;;;;;7.59;53.40;101779.28;2050149;28;46079;-51
2021/12/21 03:18:57;;;;;;;;;25.40;21.40;;;;;7.59;53.23;101784.56;2054034;28;48210;-49
2021/12/21 03:19:57;;;;;;;;;22.00;19.80;;;;;7.59;53.29;101786.31;2054440;28;48488;-53
2021/12/21 03:20:58;;;;;;;;;29.00;24.50;;;;;7.58;53.21;101781.91;2054813;28;48152;-50
2021/12/21 03:21:58;;;;;;;;;23.00;21.75;;;;;7.57;53.08;101781.03;2054797;28;47402;-50
2021/12/21 03:22:59;;;;;;;;;24.00;22.50;;;;;7.57;53.24;101783.66;2054265;28;47340;-50
2021/12/21 03:23:59;;;;;;;;;24.75;24.75;;;;;7.58;53.12;101789.81;2054495;28;47393;-50
2021/12/21 03:25:00;;;;;;;;;27.75;25.00;;;;;7.56;53.25;101781.00;2051236;28;47235;-53
2021/12/21 03:26:00;;;;;;;;;22.25;21.00;;;;;7.57;53.38;101781.03;2050183;28;47060;-50
2021/12/21 03:27:02;;;;;;;;;28.75;26.50;;;;;7.55;53.30;101780.13;2054545;28;47002;-52
2021/12/21 03:28:03;;;;;;;;;25.80;25.00;;;;;7.55;53.18;101776.59;2052608;28;48948;-54
2021/12/21 03:29:05;;;;;;;;;28.75;22.75;;;;;7.55;53.15;101781.88;2051840;28;47313;-52
2021/12/21 03:30:09;;;;;;;;;25.00;23.40;;;;;7.55;53.33;101781.88;2054652;28;47210;-54
2021/12/21 03:31:10;;;;;;;;;25.60;23.20;;;;;7.53;53.10;101779.25;2052945;28;47563;-53
2021/12/21 03:32:10;;;;;;;;;23.60;21.40;;;;;7.52;53.25;101777.47;2046967;28;47054;-52
2021/12/21 03:33:11;;;;;;;;;22.50;22.50;;;;;7.51;53.30;101785.38;2054537;28;47239;-53
2021/12/21 03:34:11;;;;;;;;;24.25;24.00;;;;;7.50;53.13;101787.16;2052885;28;47394;-52
2021/12/21 03:35:11;;;;;;;;;27.00;24.00;;;;;7.49;53.30;101779.19;2048163;28;46131;-49
2021/12/21 03:36:12;;;;;;;;;29.50;26.00;;;;;7.49;53.34;101787.09;2054665;28;47050;-49
2021/12/21 03:37:14;;;;;;;;;16.00;13.50;;;;;7.47;53.31;101780.94;2053403;28;47334;-54
2021/12/21 03:38:16;;;;;;;;;25.60;22.80;;;;;7.47;53.54;101781.81;2048527;28;47601;-50
2021/12/21 03:39:18;;;;;;;;;25.80;23.80;;;;;7.46;53.39;101785.31;2059694;27;48256;-52
2021/12/21 03:40:19;;;;;;;;;26.40;24.60;;;;;7.46;53.25;101782.69;2048900;28;48292;-49
2021/12/21 03:41:20;;;;;;;;;21.25;21.25;;;;;7.44;53.36;101779.16;2055123;28;46830;-52
2021/12/21 03:42:23;;;;;;;;;21.80;21.80;;;;;7.44;53.05;101781.78;2054747;28;47932;-53
2021/12/21 03:43:23;;;;;;;;;28.00;23.60;;;;;7.43;53.46;101777.38;2054652;28;45521;-50
2021/12/21 03:44:25;;;;;;;;;25.00;24.75;;;;;7.42;53.21;101780.91;2053832;28;45380;-49
2021/12/21 03:45:27;;;;;;;;;22.80;22.80;;;;;7.41;53.59;101783.53;2063477;28;47557;-53
2021/12/21 03:46:31;;;;;;;;;29.60;27.80;;;;;7.40;53.41;101776.50;2088737;28;46994;-53
2021/12/21 03:47:32;;;;;;;;;30.20;25.80;;;;;7.39;53.48;101786.16;2061821;28;47309;-52
2021/12/21 03:48:32;;;;;;;;;31.50;26.50;;;;;7.37;53.21;101780.88;2053651;28;48509;-51
2021/12/21 03:50:35;;;;;;;;;27.40;26.00;;;;;7.37;53.47;101778.25;2054117;28;45420;-52
2021/12/21 03:51:36;;;;;;;;;25.50;25.50;;;;;7.37;53.31;101775.59;2054793;28;48136;-52
2021/12/21 03:52:36;;;;;;;;;24.75;23.75;;;;;7.37;53.28;101782.63;2046973;28;47208;-54
2021/12/21 03:53:37;;;;;;;;;27.25;27.25;;;;;7.36;53.40;101783.47;2051438;28;47220;-53
2021/12/21 03:54:40;;;;;;;;;26.40;24.00;;;;;7.36;53.64;101786.13;2054476;28;46230;-53
2021/12/21 03:55:40;;;;;;;;;25.20;23.60;;;;;7.35;53.52;101782.59;2049641;28;47233;-52
2021/12/21 03:56:42;;;;;;;;;27.50;24.50;;;;;7.34;53.58;101788.75;2054029;28;46941;-51
2021/12/21 03:57:42;;;;;;;;;28.80;27.40;;;;;7.33;53.47;101786.09;2054131;28;46996;-53
2021/12/21 03:58:43;;;;;;;;;25.25;24.00;;;;;7.33;53.68;101788.75;2051484;28;47507;-54
2021/12/21 03:59:45;;;;;;;;;24.60;24.40;;;;;7.32;53.60;101779.94;2074618;28;47418;-53
2021/12/21 04:00:45;;;;;;;;;28.40;22.40;;;;;7.31;53.32;101786.09;2051391;28;47099;-53
2021/12/21 04:01:46;;;;;;;;;29.50;29.50;;;;;7.30;53.41;101779.03;2051571;28;48407;-53
2021/12/21 04:02:46;;;;;;;;;27.00;25.60;;;;;7.30;53.45;101788.72;2052827;28;45375;-53
2021/12/21 04:03:47;;;;;;;;;26.50;24.75;;;;;7.29;53.38;101786.97;2053275;28;47409;-52
2021/12/21 04:04:48;;;;;;;;;24.50;22.00;;;;;7.28;53.62;101785.19;2054427;28;48636;-51
2021/12/21 04:05:49;;;;;;;;;27.20;22.40;;;;;7.27;53.47;101792.22;2054421;28;48214;-53
2021/12/21 04:06:49;;;;;;;;;28.50;26.25;;;;;7.25;53.77;101791.34;2054383;28;47292;-48
2021/12/21 04:07:50;;;;;;;;;28.75;25.75;;;;;7.24;53.68;101779.00;2054184;28;46104;-51
2021/12/21 04:08:50;;;;;;;;;28.75;27.25;;;;;7.23;53.69;101785.13;2054289;28;46832;-54
2021/12/21 04:09:51;;;;;;;;;29.75;27.00;;;;;7.23;53.77;101786.88;2050382;28;47494;-52
2021/12/21 04:10:51;;;;;;;;;31.50;26.00;;;;;7.22;53.85;101783.34;2054731;28;47168;-52
2021/12/21 04:11:52;;;;;;;;;31.00;28.25;;;;;7.22;53.55;101779.84;2053751;28;47848;-52
2021/12/21 04:12:52;;;;;;;;;31.75;27.25;;;;;7.21;53.84;101776.31;2054117;28;46976;-50
2021/12/21 04:13:53;;;;;;;;;28.75;27.00;;;;;7.20;53.97;101782.47;2053683;28;47346;-54
2021/12/21 04:14:55;;;;;;;;;36.50;34.25;;;;;7.19;53.80;101775.41;2054707;28;47224;-51
2021/12/21 04:15:59;;;;;;;;;34.80;31.40;;;;;7.19;53.80;101778.06;2048031;28;47438;-51
2021/12/21 04:16:59;;;;;;;;;37.20;33.20;;;;;7.18;53.64;101778.94;2054691;28;46991;-53
2021/12/21 04:18:02;;;;;;;;;35.00;33.50;;;;;7.16;53.57;101770.13;2054017;28;48012;-54
2021/12/21 04:19:03;;;;;;;;;31.60;30.80;;;;;7.15;53.84;101775.38;2051764;28;47706;-53
2021/12/21 04:20:04;;;;;;;;;36.60;34.40;;;;;7.15;53.96;101772.75;2047682;28;47369;-53
2021/12/21 04:21:08;;;;;;;;;33.50;32.50;;;;;7.13;53.69;101772.75;2049791;28;46800;-50
2021/12/21 04:22:09;;;;;;;;;39.20;35.00;;;;;7.13;54.00;101771.84;2054412;28;48090;-51
2021/12/21 04:23:09;;;;;;;;;43.75;36.75;;;;;7.11;53.89;101771.81;2053799;28;47220;-52
2021/12/21 04:24:10;;;;;;;;;43.25;36.75;;;;;7.12;53.84;101770.09;2052831;28;47662;-49
2021/12/21 04:25:12;;;;;;;;;44.75;39.50;;;;;7.10;54.00;101770.03;2051655;28;47110;-53
2021/12/21 04:26:14;;;;;;;;;42.40;36.00;;;;;7.11;54.39;101765.66;2054178;28;48410;-50
2021/12/21 04:27:16;;;;;;;;;44.40;39.80;;;;;7.09;53.99;101766.53;2054687;28;48582;-54
2021/12/21 04:28:16;;;;;;;;;43.00;39.40;;;;;7.08;53.95;101772.66;2054005;28;47567;-51
2021/12/21 04:29:17;;;;;;;;;44.75;36.75;;;;;7.08;53.82;101764.75;2051948;28;47251;-52
2021/12/21 04:30:17;;;;;;;;;40.25;36.75;;;;;7.08;54.03;101763.88;2050581;28;47827;-51
2021/12/21 04:31:18;;;;;;;;;46.50;39.50;;;;;7.06;54.06;101769.13;2054891;28;47790;-51
2021/12/21 04:32:18;;;;;;;;;41.00;36.75;;;;;7.06;53.93;101769.13;2054421;28;47192;-50
2021/12/21 04:33:19;;;;;;;;;51.50;40.25;;;;;7.06;54.18;101765.63;2057179;28;47119;-52
2021/12/21 04:34:19;;;;;;;;;39.25;36.75;;;;;7.06;54.11;101773.53;2056535;28;48019;-54
2021/12/21 04:35:21;;;;;;;;;42.75;37.25;;;;;7.05;53.99;101769.13;2053859;28;47403;-54
2021/12/21 04:36:21;;;;;;;;;44.60;38.40;;;;;7.03;54.12;101766.47;2052574;28;48224;-50
2021/12/21 04:37:23;;;;;;;;;37.25;35.50;;;;;7.04;54.17;101767.38;2050825;28;47625;-50
2021/12/21 04:38:29;;;;;;;;;43.20;36.40;;;;;7.04;54.15;101762.97;2054179;28;48373;-51
2021/12/21 04:39:37;;;;;;;;;43.60;37.80;;;;;7.03;54.17;101769.13;2048713;28;47488;-52
2021/12/21 04:40:42;;;;;;;;;39.40;35.40;;;;;7.04;54.09;101770.00;2053955;28;47662;-53
2021/12/21 04:41:44;;;;;;;;;44.40;38.20;;;;;7.02;54.00;101767.34;2054444;28;48030;-54
2021/12/21 04:42:44;;;;;;;;;40.40;37.20;;;;;7.01;54.29;101765.59;2054307;28;48426;-50
2021/12/21 04:43:44;;;;;;;;;41.50;37.25;;;;;7.01;54.16;101765.59;2053634;28;48333;-53
2021/12/21 04:44:45;;;;;;;;;47.25;37.75;;;;;7.01;54.10;101767.34;2048443;28;47375;-52
2021/12/21 04:45:46;;;;;;;;;47.25;40.00;;;;;7.00;54.12;101768.22;2051772;28;47229;-53
2021/12/21 04:46:46;;;;;;;;;49.75;41.75;;;;;6.99;53.95;101762.06;2054570;28;48069;-53
2021/12/21 04:47:46;;;;;;;;;38.50;35.00;;;;;6.99;54.25;101769.09;2054305;28;47412;-54
2021/12/21 04:48:47;;;;;;;;;39.25;34.50;;;;;6.98;54.04;101762.00;2051446;28;47394;-51
2021/12/21 04:49:48;;;;;;;;;43.60;38.20;;;;;6.97;54.19;101761.13;2052554;28;45600;-52
2021/12/21 04:50:49;;;;;;;;;42.50;38.00;;;;;6.98;54.35;101765.53;2048081;28;47841;-54
2021/12/21 04:51:49;;;;;;;;;47.25;40.25;;;;;6.98;54.30;101765.53;2047357;28;47949;-51
2021/12/21 04:52:50;;;;;;;;;38.75;36.75;;;;;6.97;54.02;101765.53;2049342;28;47168;-52
2021/12/21 04:53:50;;;;;;;;;42.25;36.25;;;;;6.96;54.14;101762.00;2051770;28;47819;-50
2021/12/21 04:54:50;;;;;;;;;41.75;35.00;;;;;6.96;54.12;101766.38;2054197;28;48137;-51
2021/12/21 04:55:52;;;;;;;;;41.00;35.25;;;;;6.95;54.66;101764.63;2049547;28;47409;-53
2021/12/21 04:56:52;;;;;;;;;39.00;36.20;;;;;6.94;54.30;101760.22;2053948;28;47684;-54
2021/12/21 04:57:52;;;;;;;;;38.50;36.25;;;;;6.94;54.29;101762.84;2054225;28;47176;-51
2021/12/21 04:58:53;;;;;;;;;43.25;35.00;;;;;6.93;54.19;101758.44;2051816;28;46301;-53
2021/12/21 04:59:53;;;;;;;;;31.00;31.00;;;;;6.92;54.27;101756.69;2054060;28;48051;-54
2021/12/21 05:00:54;;;;;;;;;37.00;36.00;;;;;6.92;54.27;101764.59;2053187;28;48086;-55
2021/12/21 05:01:55;;;;;;;;;41.50;35.25;;;;;6.91;54.02;101765.47;2053304;28;47275;-53
2021/12/21 05:02:55;;;;;;;;;43.00;37.75;;;;;6.90;54.04;101758.44;2054629;28;47919;-51
2021/12/21 05:03:55;;;;;;;;;34.50;31.50;;;;;6.88;54.32;101760.19;2053754;28;47824;-53
2021/12/21 05:04:56;;;;;;;;;31.75;28.50;;;;;6.87;54.33;101761.94;2054161;28;48067;-50
2021/12/21 05:05:56;;;;;;;;;32.25;30.75;;;;;6.87;54.52;101758.41;2054003;28;47947;-54
2021/12/21 05:06:57;;;;;;;;;34.75;33.75;;;;;6.85;54.49;101754.84;2053914;28;47118;-54
2021/12/21 05:08:10;;;;;;;;;30.75;27.75;;;;;6.85;54.29;101760.13;2053083;28;47056;-53
2021/12/21 05:09:14;;;;;;;;;38.80;35.60;;;;;6.85;54.38;101757.47;2052999;28;48202;-54
2021/12/21 05:10:14;;;;;;;;;33.20;29.40;;;;;6.84;54.79;101756.59;2053747;28;48120;-53
2021/12/21 05:11:18;;;;;;;;;34.50;33.00;;;;;6.84;54.59;101758.34;2054107;28;48099;-54
2021/12/21 05:12:19;;;;;;;;;32.00;29.80;;;;;6.83;54.22;101754.81;2054124;28;47270;-52
2021/12/21 05:13:22;;;;;;;;;31.00;30.75;;;;;6.83;54.65;101762.75;2053900;28;46649;-53
2021/12/21 05:14:22;;;;;;;;;35.60;33.80;;;;;6.83;54.61;101761.88;2053737;27;47347;-54
2021/12/21 05:15:23;;;;;;;;;36.25;31.50;;;;;6.82;54.24;101768.00;2054573;28;48380;-52
2021/12/21 05:16:24;;;;;;;;;31.25;28.50;;;;;6.81;54.46;101767.13;2053697;28;47398;-51
2021/12/21 05:17:24;;;;;;;;;31.50;30.25;;;;;6.79;54.68;101759.19;2054300;28;47083;-51
2021/12/21 05:18:26;;;;;;;;;30.25;26.00;;;;;6.79;54.63;101761.84;2053533;28;48251;-52
2021/12/21 05:19:26;;;;;;;;;33.60;33.00;;;;;6.79;54.64;101760.97;2054103;28;47274;-52
2021/12/21 05:20:26;;;;;;;;;36.50;33.00;;;;;6.79;54.59;101769.75;2050920;28;47241;-55
2021/12/21 05:21:27;;;;;;;;;32.75;31.75;;;;;6.79;54.64;101764.47;2053612;28;47205;-51
2021/12/21 05:22:27;;;;;;;;;35.75;30.25;;;;;6.78;54.34;101770.63;2053794;28;47906;-54
2021/12/21 05:23:28;;;;;;;;;27.75;26.50;;;;;6.76;54.81;101769.72;2053928;28;47391;-55